createdAt,value
2018-03-01T00:00:34.856Z,21.60
2018-03-01T00:01:38.863Z,21.40
2018-03-01T00:02:42.885Z,22.25
2018-03-01T00:03:46.864Z,22.80
2018-03-01T00:04:50.991Z,23.27
2018-03-01T00:05:54.224Z,24.23
2018-03-01T00:06:57.498Z,23.58
2018-03-01T00:08:00.739Z,23.25
2018-03-01T00:09:03.989Z,22.67
2018-03-01T00:10:07.208Z,22.77
2018-03-01T00:11:10.440Z,22.90
2018-03-01T00:12:13.713Z,23.17
2018-03-01T00:13:16.949Z,22.33
2018-03-01T00:14:20.210Z,23.15
2018-03-01T00:15:23.430Z,24.73
2018-03-01T00:16:26.666Z,21.80
2018-03-01T00:17:29.904Z,23.45
2018-03-01T00:18:33.126Z,24.20
2018-03-01T00:19:36.353Z,22.75
2018-03-01T00:20:39.600Z,23.55
2018-03-01T00:21:42.832Z,22.52
2018-03-01T00:22:46.074Z,22.42
2018-03-01T00:23:50.109Z,24.55
2018-03-01T00:24:53.344Z,23.83
2018-03-01T00:25:56.578Z,22.87
2018-03-01T00:26:59.831Z,23.75
2018-03-01T00:28:03.817Z,24.23
2018-03-01T00:29:07.841Z,24.37
2018-03-01T00:30:11.056Z,22.67
2018-03-01T00:31:14.285Z,23.45
2018-03-01T00:32:18.292Z,24.05
2018-03-01T00:33:21.529Z,23.35
2018-03-01T00:34:24.752Z,22.83
2018-03-01T00:35:28.759Z,24.42
2018-03-01T00:36:32.765Z,23.02
2018-03-01T00:37:36.809Z,22.73
2018-03-01T00:38:40.064Z,24.05
2018-03-01T00:39:43.357Z,23.98
2018-03-01T00:40:46.737Z,23.70
2018-03-01T00:41:50.720Z,23.35
2018-03-01T00:42:54.741Z,22.35
2018-03-01T00:43:57.980Z,23.50
2018-03-01T00:45:01.225Z,25.17
2018-03-01T00:46:04.470Z,24.17
2018-03-01T00:47:08.469Z,23.42
2018-03-01T00:48:12.472Z,23.15
2018-03-01T00:49:16.461Z,24.17
2018-03-01T00:50:20.476Z,24.35
2018-03-01T00:51:24.499Z,22.10
2018-03-01T00:52:27.723Z,23.40
2018-03-01T00:53:30.937Z,23.50
2018-03-01T00:54:34.949Z,25.10
2018-03-01T00:55:38.946Z,25.35
2018-03-01T00:56:42.938Z,24.70
2018-03-01T00:57:46.933Z,24.95
2018-03-01T00:58:50.922Z,23.67
2018-03-01T00:59:54.194Z,25.15
2018-03-01T01:00:57.379Z,24.35
2018-03-01T01:02:01.394Z,23.73
2018-03-01T01:03:04.621Z,24.00
2018-03-01T01:04:07.844Z,23.65
2018-03-01T01:05:11.078Z,24.63
2018-03-01T01:06:14.314Z,25.73
2018-03-01T01:07:17.588Z,25.48
2018-03-01T01:08:20.828Z,24.50
2018-03-01T01:09:24.062Z,24.17
2018-03-01T01:10:27.292Z,23.20
2018-03-01T01:11:30.526Z,24.27
2018-03-01T01:12:33.755Z,24.58
2018-03-01T01:13:36.989Z,24.12
2018-03-01T01:14:40.213Z,25.27
2018-03-01T01:15:43.461Z,23.27
2018-03-01T01:16:46.680Z,22.73
2018-03-01T01:17:50.668Z,22.98
2018-03-01T01:18:53.908Z,24.58
2018-03-01T01:19:57.129Z,22.70
2018-03-01T01:21:01.140Z,23.70
2018-03-01T01:22:05.128Z,22.75
2018-03-01T01:23:09.113Z,24.92
2018-03-01T01:24:13.918Z,25.98
2018-03-01T01:25:17.109Z,24.33
2018-03-01T01:26:20.353Z,25.58
2018-03-01T01:27:23.573Z,22.77
2018-03-01T01:28:26.821Z,22.92
2018-03-01T01:29:30.037Z,25.52
2018-03-01T01:30:33.272Z,24.92
2018-03-01T01:31:36.527Z,24.37
2018-03-01T01:32:40.539Z,23.70
2018-03-01T01:33:44.525Z,24.83
2018-03-01T01:34:47.742Z,23.85
2018-03-01T01:35:50.962Z,25.45
2018-03-01T01:36:54.185Z,24.83
2018-03-01T01:37:58.175Z,23.85
2018-03-01T01:39:02.176Z,23.08
2018-03-01T01:40:06.160Z,24.60
2018-03-01T01:41:09.483Z,25.83
2018-03-01T01:42:12.717Z,24.02
2018-03-01T01:43:15.936Z,24.77
2018-03-01T01:44:19.928Z,24.23
2018-03-01T01:45:23.934Z,27.58
2018-03-01T01:46:27.925Z,25.20
2018-03-01T01:47:31.928Z,23.20
2018-03-01T01:48:35.922Z,25.00
2018-03-01T01:49:39.166Z,24.52
2018-03-01T01:52:18.379Z,23.08
2018-03-01T01:53:24.069Z,24.65
2018-03-01T01:54:27.314Z,24.48
2018-03-01T01:55:30.572Z,26.15
2018-03-01T01:56:34.583Z,26.27
2018-03-01T01:57:37.811Z,24.73
2018-03-01T01:58:41.046Z,24.73
2018-03-01T01:59:44.298Z,25.42
2018-03-01T02:00:47.520Z,23.42
2018-03-01T02:01:50.756Z,22.85
2018-03-01T02:02:54.790Z,24.58
2018-03-01T02:03:58.794Z,24.52
2018-03-01T02:05:02.028Z,26.25
2018-03-01T02:06:05.267Z,26.42
2018-03-01T02:07:08.492Z,25.80
2018-03-01T02:08:11.760Z,25.30
2018-03-01T02:09:14.964Z,24.92
2018-03-01T02:10:18.190Z,24.87
2018-03-01T02:11:21.434Z,23.40
2018-03-01T02:12:24.749Z,25.30
2018-03-01T02:13:28.756Z,25.27
2018-03-01T02:14:31.975Z,23.42
2018-03-01T02:15:35.215Z,24.52
2018-03-01T02:16:38.458Z,24.55
2018-03-01T02:17:41.736Z,23.10
2018-03-01T02:18:44.945Z,22.48
2018-03-01T02:19:48.957Z,27.27
2018-03-01T02:20:52.953Z,24.35
2018-03-01T02:21:56.949Z,24.02
2018-03-01T02:23:00.175Z,24.67
2018-03-01T02:24:03.406Z,25.58
2018-03-01T02:25:06.637Z,26.23
2018-03-01T02:26:09.918Z,22.98
2018-03-01T02:27:13.142Z,25.30
2018-03-01T02:28:17.920Z,26.37
2018-03-01T02:29:21.134Z,24.75
2018-03-01T02:30:26.166Z,25.48
2018-03-01T02:31:29.398Z,26.08
2018-03-01T02:32:33.410Z,26.55
2018-03-01T02:33:36.627Z,25.33
2018-03-01T02:34:39.862Z,26.12
2018-03-01T02:35:43.164Z,25.37
2018-03-01T02:36:46.398Z,26.35
2018-03-01T02:37:49.628Z,25.80
2018-03-01T02:38:52.864Z,25.30
2018-03-01T02:39:56.127Z,25.33
2018-03-01T02:40:59.364Z,27.87
2018-03-01T02:42:02.600Z,25.00
2018-03-01T02:43:05.840Z,24.75
2018-03-01T02:44:09.058Z,24.50
2018-03-01T02:45:12.287Z,23.80
2018-03-01T02:46:15.545Z,25.23
2018-03-01T02:47:18.834Z,25.50
2018-03-01T02:48:22.849Z,26.25
2018-03-01T02:49:26.853Z,28.80
2018-03-01T02:50:30.856Z,25.65
2018-03-01T02:51:34.844Z,25.27
2018-03-01T02:52:38.875Z,25.90
2018-03-01T02:53:42.081Z,25.48
2018-03-01T02:54:45.310Z,26.98
2018-03-01T02:55:49.312Z,26.62
2018-03-01T02:56:53.301Z,26.45
2018-03-01T02:57:56.529Z,26.85
2018-03-01T02:58:59.744Z,25.45
2018-03-01T03:00:03.762Z,27.25
2018-03-01T03:01:07.027Z,25.83
2018-03-01T03:02:10.237Z,25.15
2018-03-01T03:03:13.466Z,25.77
2018-03-01T03:04:16.771Z,26.05
2018-03-01T03:05:20.013Z,25.20
2018-03-01T03:06:23.283Z,26.70
2018-03-01T03:07:27.396Z,25.62
2018-03-01T03:08:31.419Z,27.30
2018-03-01T03:09:35.429Z,26.12
2018-03-01T03:10:38.690Z,26.70
2018-03-01T03:11:42.699Z,27.33
2018-03-01T03:12:45.969Z,25.73
2018-03-01T03:13:49.213Z,26.35
2018-03-01T03:14:52.457Z,27.58
2018-03-01T03:15:55.680Z,26.60
2018-03-01T03:16:59.009Z,25.00
2018-03-01T03:18:02.237Z,24.17
2018-03-01T03:19:05.490Z,29.20
2018-03-01T03:20:08.730Z,27.15
2018-03-01T03:21:12.705Z,25.40
2018-03-01T03:22:15.943Z,27.13
2018-03-01T03:23:19.169Z,24.85
2018-03-01T03:24:22.427Z,26.42
2018-03-01T03:25:25.711Z,25.48
2018-03-01T03:26:28.961Z,27.40
2018-03-01T03:27:32.970Z,26.60
2018-03-01T03:28:37.015Z,26.85
2018-03-01T03:29:40.296Z,25.92
2018-03-01T03:30:43.505Z,25.98
2018-03-01T03:31:46.788Z,25.83
2018-03-01T03:32:50.026Z,27.45
2018-03-01T03:33:53.310Z,26.37
2018-03-01T03:34:56.582Z,26.25
2018-03-01T03:35:59.870Z,25.98
2018-03-01T03:37:03.112Z,25.92
2018-03-01T03:38:07.161Z,26.85
2018-03-01T03:39:10.438Z,28.75
2018-03-01T03:40:13.710Z,26.33
2018-03-01T03:41:17.719Z,26.10
2018-03-01T03:42:20.974Z,28.20
2018-03-01T03:43:25.024Z,24.10
2018-03-01T03:44:28.274Z,25.90
2018-03-01T03:45:31.485Z,25.58
2018-03-01T03:46:34.746Z,28.33
2018-03-01T03:47:38.026Z,25.50
2018-03-01T03:48:42.033Z,28.10
2018-03-01T03:49:45.291Z,28.60
2018-03-01T03:50:48.541Z,26.80
2018-03-01T03:53:01.353Z,27.05
2018-03-01T03:54:04.605Z,26.85
2018-03-01T03:55:07.855Z,27.40
2018-03-01T03:56:11.080Z,25.52
2018-03-01T03:57:14.325Z,26.30
2018-03-01T03:58:18.319Z,26.27
2018-03-01T03:59:21.586Z,27.40
2018-03-01T04:00:24.806Z,25.55
2018-03-01T04:01:28.090Z,25.98
2018-03-01T04:02:32.178Z,26.85
2018-03-01T04:03:35.455Z,27.05
2018-03-01T04:04:38.656Z,27.08
2018-03-01T04:05:42.738Z,25.00
2018-03-01T04:06:46.002Z,27.27
2018-03-01T04:07:49.267Z,27.37
2018-03-01T04:08:52.692Z,28.00
2018-03-01T04:09:55.936Z,26.52
2018-03-01T04:10:59.186Z,28.05
2018-03-01T04:12:02.463Z,26.55
2018-03-01T04:13:05.726Z,27.35
2018-03-01T04:14:09.774Z,26.35
2018-03-01T04:15:13.025Z,26.52
2018-03-01T04:16:17.115Z,26.77
2018-03-01T04:17:21.222Z,29.08
2018-03-01T04:18:25.314Z,26.83
2018-03-01T04:19:28.561Z,27.15
2018-03-01T04:20:31.890Z,25.58
2018-03-01T04:21:35.924Z,27.20
2018-03-01T04:22:39.172Z,25.80
2018-03-01T04:23:43.193Z,26.73
2018-03-01T04:24:47.189Z,27.00
2018-03-01T04:25:51.202Z,28.08
2018-03-01T04:26:54.461Z,27.05
2018-03-01T04:27:58.643Z,26.62
2018-03-01T04:29:01.900Z,28.42
2018-03-01T04:30:05.126Z,26.27
2018-03-01T04:31:08.418Z,26.92
2018-03-01T04:32:11.633Z,27.23
2018-03-01T04:33:14.869Z,26.12
2018-03-01T04:34:18.103Z,27.58
2018-03-01T04:35:21.343Z,27.83
2018-03-01T04:36:25.322Z,29.05
2018-03-01T04:37:28.616Z,27.02
2018-03-01T04:38:32.731Z,29.30
2018-03-01T04:39:35.954Z,27.08
2018-03-01T04:40:39.209Z,26.40
2018-03-01T04:41:43.212Z,27.48
2018-03-01T04:42:46.538Z,26.65
2018-03-01T04:43:49.805Z,27.00
2018-03-01T04:44:53.055Z,27.98
2018-03-01T04:45:56.344Z,28.35
2018-03-01T04:46:59.558Z,28.00
2018-03-01T04:48:02.845Z,28.00
2018-03-01T04:49:06.122Z,27.60
2018-03-01T04:50:09.394Z,28.50
2018-03-01T04:51:12.760Z,27.95
2018-03-01T04:52:17.313Z,27.48
2018-03-01T04:53:20.580Z,27.23
2018-03-01T04:54:23.833Z,27.30
2018-03-01T04:55:27.049Z,27.60
2018-03-01T04:56:30.281Z,27.60
2018-03-01T04:57:33.518Z,28.50
2018-03-01T04:58:36.791Z,27.62
2018-03-01T04:59:40.123Z,25.95
2018-03-01T05:00:43.368Z,29.30
2018-03-01T05:01:46.615Z,26.90
2018-03-01T05:02:49.837Z,27.15
2018-03-01T05:03:53.089Z,26.73
2018-03-01T05:04:57.116Z,28.30
2018-03-01T05:06:00.408Z,27.48
2018-03-01T05:07:03.827Z,27.80
2018-03-01T05:08:07.111Z,27.85
2018-03-01T05:09:10.356Z,26.58
2018-03-01T05:10:13.611Z,27.58
2018-03-01T05:11:17.609Z,27.50
2018-03-01T05:12:21.641Z,29.45
2018-03-01T05:13:24.868Z,28.70
2018-03-01T05:14:28.086Z,26.75
2018-03-01T05:15:32.113Z,29.37
2018-03-01T05:16:35.365Z,28.67
2018-03-01T05:17:39.426Z,27.92
2018-03-01T05:18:42.719Z,28.25
2018-03-01T05:19:45.949Z,27.75
2018-03-01T05:20:49.978Z,27.73
2018-03-01T05:21:53.264Z,28.05
2018-03-01T05:22:56.499Z,27.73
2018-03-01T05:24:00.504Z,29.63
2018-03-01T05:25:03.780Z,28.10
2018-03-01T05:26:07.795Z,28.05
2018-03-01T05:27:11.802Z,27.35
2018-03-01T05:28:15.071Z,26.85
2018-03-01T05:29:18.528Z,26.80
2018-03-01T05:30:21.821Z,26.87
2018-03-01T05:31:25.202Z,26.30
2018-03-01T05:32:28.447Z,25.95
2018-03-01T05:33:31.671Z,26.60
2018-03-01T05:34:34.967Z,29.20
2018-03-01T05:35:38.203Z,26.60
2018-03-01T05:36:41.439Z,26.67
2018-03-01T05:37:45.459Z,28.23
2018-03-01T05:38:48.747Z,26.98
2018-03-01T05:39:51.971Z,26.48
2018-03-01T05:40:55.213Z,27.10
2018-03-01T05:41:59.234Z,27.87
2018-03-01T05:43:02.498Z,27.70
2018-03-01T05:44:05.751Z,28.00
2018-03-01T05:45:09.007Z,26.85
2018-03-01T05:46:12.284Z,27.85
2018-03-01T05:47:15.576Z,27.25
2018-03-01T05:48:18.878Z,27.42
2018-03-01T05:49:22.084Z,27.77
2018-03-01T05:50:26.387Z,26.65
2018-03-01T05:51:30.450Z,26.95
2018-03-01T05:52:33.793Z,26.12
2018-03-01T05:53:37.848Z,27.67
2018-03-01T05:54:41.141Z,29.05
2018-03-01T05:55:44.419Z,28.05
2018-03-01T05:56:47.710Z,25.88
2018-03-01T05:57:50.938Z,26.37
2018-03-01T05:58:54.195Z,26.48
2018-03-01T05:59:58.241Z,26.75
2018-03-01T06:01:01.477Z,28.08
2018-03-01T06:02:04.710Z,27.33
2018-03-01T06:03:07.953Z,27.33
2018-03-01T06:04:11.987Z,27.85
2018-03-01T06:05:15.242Z,27.95
2018-03-01T06:06:19.242Z,25.88
2018-03-01T06:07:23.252Z,26.08
2018-03-01T06:08:27.263Z,26.08
2018-03-01T06:09:30.534Z,26.77
2018-03-01T06:10:33.799Z,27.10
2018-03-01T06:11:37.031Z,26.58
2018-03-01T06:12:40.369Z,26.75
2018-03-01T06:13:43.640Z,26.90
2018-03-01T06:14:46.956Z,24.80
2018-03-01T06:15:51.099Z,26.80
2018-03-01T06:16:54.404Z,26.33
2018-03-01T06:17:57.644Z,28.87
2018-03-01T06:19:00.881Z,26.23
2018-03-01T06:20:04.116Z,27.23
2018-03-01T06:21:07.344Z,27.98
2018-03-01T06:22:10.600Z,27.40
2018-03-01T06:23:13.825Z,25.70
2018-03-01T06:24:17.815Z,25.65
2018-03-01T06:25:21.070Z,26.33
2018-03-01T06:26:24.298Z,28.65
2018-03-01T06:27:27.556Z,25.70
2018-03-01T06:28:30.810Z,28.17
2018-03-01T06:29:34.030Z,28.35
2018-03-01T06:30:38.034Z,27.02
2018-03-01T06:31:42.021Z,26.00
2018-03-01T06:32:45.390Z,28.77
2018-03-01T06:33:48.598Z,25.90
2018-03-01T06:34:53.359Z,27.40
2018-03-01T06:35:56.606Z,27.62
2018-03-01T06:37:00.674Z,28.95
2018-03-01T06:38:03.870Z,26.98
2018-03-01T06:39:07.131Z,26.33
2018-03-01T06:40:10.426Z,25.25
2018-03-01T06:41:13.691Z,26.90
2018-03-01T06:42:16.941Z,27.70
2018-03-01T06:43:20.201Z,25.58
2018-03-01T06:44:24.365Z,27.27
2018-03-01T06:45:27.593Z,26.70
2018-03-01T06:46:31.589Z,28.42
2018-03-01T06:47:35.626Z,29.75
2018-03-01T06:48:38.871Z,27.62
2018-03-01T06:49:42.114Z,26.42
2018-03-01T06:50:45.334Z,26.48
2018-03-01T06:51:48.602Z,25.25
2018-03-01T06:52:51.857Z,25.40
2018-03-01T06:53:55.100Z,27.62
2018-03-01T06:54:58.414Z,25.25
2018-03-01T06:56:01.939Z,25.33
2018-03-01T06:57:05.182Z,25.73
2018-03-01T06:58:08.433Z,27.20
2018-03-01T06:59:11.864Z,27.00
2018-03-01T07:00:15.150Z,27.80
2018-03-01T07:01:18.392Z,26.55
2018-03-01T07:02:22.413Z,26.27
2018-03-01T07:03:25.653Z,26.90
2018-03-01T07:04:28.894Z,27.15
2018-03-01T07:05:32.212Z,26.98
2018-03-01T07:06:35.499Z,27.83
2018-03-01T07:07:38.756Z,27.35
2018-03-01T07:08:42.034Z,28.40
2018-03-01T07:09:45.466Z,27.20
2018-03-01T07:10:48.728Z,27.92
2018-03-01T07:11:51.990Z,26.10
2018-03-01T07:12:55.236Z,25.83
2018-03-01T07:13:59.268Z,26.02
2018-03-01T07:15:02.512Z,24.85
2018-03-01T07:16:05.752Z,28.00
2018-03-01T07:17:08.964Z,27.62
2018-03-01T07:18:12.241Z,26.15
2018-03-01T07:19:15.525Z,26.15
2018-03-01T07:20:18.728Z,26.80
2018-03-01T07:21:22.718Z,27.75
2018-03-01T07:22:26.057Z,26.50
2018-03-01T07:23:29.312Z,28.00
2018-03-01T07:24:32.554Z,30.40
2018-03-01T07:25:36.594Z,28.20
2018-03-01T07:26:40.587Z,26.92
2018-03-01T07:27:44.622Z,25.33
2018-03-01T07:28:47.858Z,26.85
2018-03-01T07:29:51.092Z,26.77
2018-03-01T07:30:54.321Z,24.12
2018-03-01T07:31:57.573Z,26.05
2018-03-01T07:33:00.941Z,26.35
2018-03-01T07:34:04.148Z,28.27
2018-03-01T07:35:07.394Z,26.65
2018-03-01T07:36:10.649Z,25.70
2018-03-01T07:37:14.819Z,27.37
2018-03-01T07:38:18.233Z,27.98
2018-03-01T07:39:21.495Z,27.35
2018-03-01T07:40:24.727Z,28.80
2018-03-01T07:41:28.766Z,26.98
2018-03-01T07:42:32.042Z,27.50
2018-03-01T07:43:35.379Z,26.40
2018-03-01T07:44:39.418Z,26.77
2018-03-01T07:45:42.810Z,26.77
2018-03-01T07:46:46.109Z,27.55
2018-03-01T07:47:49.320Z,28.42
2018-03-01T07:48:52.653Z,25.60
2018-03-01T07:49:55.889Z,25.52
2018-03-01T07:50:59.222Z,27.05
2018-03-01T07:52:02.457Z,27.48
2018-03-01T07:53:05.776Z,28.33
2018-03-01T07:54:09.045Z,25.70
2018-03-01T07:55:13.027Z,29.73
2018-03-01T07:56:17.118Z,27.60
2018-03-01T07:57:20.354Z,26.30
2018-03-01T07:58:23.625Z,26.65
2018-03-01T07:59:27.589Z,27.40
2018-03-01T08:00:30.962Z,27.17
2018-03-01T08:01:34.152Z,25.33
2018-03-01T08:02:37.394Z,24.85
2018-03-01T08:03:40.613Z,29.87
2018-03-01T08:04:43.862Z,27.17
2018-03-01T08:05:47.149Z,27.17
2018-03-01T08:06:50.406Z,25.52
2018-03-01T08:07:54.445Z,27.85
2018-03-01T08:08:57.666Z,26.45
2018-03-01T08:10:00.910Z,26.98
2018-03-01T08:11:04.148Z,26.35
2018-03-01T08:12:07.393Z,27.98
2018-03-01T08:13:10.657Z,27.02
2018-03-01T08:14:13.895Z,25.42
2018-03-01T08:15:17.897Z,27.27
2018-03-01T08:16:21.896Z,27.95
2018-03-01T08:17:25.923Z,27.60
2018-03-01T08:18:29.153Z,24.77
2018-03-01T08:19:32.393Z,27.17
2018-03-01T08:20:35.675Z,27.25
2018-03-01T08:21:38.908Z,25.98
2018-03-01T08:22:42.228Z,27.30
2018-03-01T08:23:45.458Z,24.67
2018-03-01T08:24:48.726Z,27.45
2018-03-01T08:25:51.953Z,25.23
2018-03-01T08:26:55.966Z,28.25
2018-03-01T08:27:59.975Z,28.83
2018-03-01T08:29:03.986Z,25.70
2018-03-01T08:30:07.219Z,29.00
2018-03-01T08:31:10.466Z,27.98
2018-03-01T08:32:13.727Z,27.55
2018-03-01T08:33:16.986Z,28.77
2018-03-01T08:34:20.217Z,26.33
2018-03-01T08:35:23.500Z,28.08
2018-03-01T08:36:26.744Z,27.67
2018-03-01T08:37:30.773Z,26.92
2018-03-01T08:38:34.024Z,27.10
2018-03-01T08:39:37.407Z,26.17
2018-03-01T08:40:42.008Z,27.33
2018-03-01T08:41:45.241Z,26.87
2018-03-01T08:42:48.561Z,28.15
2018-03-01T08:43:51.759Z,27.33
2018-03-01T08:44:54.992Z,28.52
2018-03-01T08:45:58.233Z,28.25
2018-03-01T08:47:01.479Z,27.95
2018-03-01T08:48:04.790Z,28.90
2018-03-01T08:49:08.026Z,29.48
2018-03-01T08:50:11.280Z,25.45
2018-03-01T08:51:15.313Z,26.60
2018-03-01T08:52:18.534Z,26.35
2018-03-01T08:53:21.770Z,27.13
2018-03-01T08:54:25.153Z,27.00
2018-03-01T08:55:28.376Z,27.45
2018-03-01T08:56:31.635Z,30.37
2018-03-01T08:57:34.868Z,27.30
2018-03-01T08:58:38.118Z,28.10
2018-03-01T08:59:41.371Z,26.35
2018-03-01T09:00:44.623Z,29.02
2018-03-01T09:01:47.852Z,27.05
2018-03-01T09:02:51.090Z,27.42
2018-03-01T09:03:54.336Z,27.83
2018-03-01T09:04:57.577Z,26.33
2018-03-01T09:06:00.864Z,25.27
2018-03-01T09:07:04.115Z,27.52
2018-03-01T09:08:08.110Z,27.98
2018-03-01T09:09:12.119Z,27.45
2018-03-01T09:10:16.118Z,28.27
2018-03-01T09:11:20.132Z,26.62
2018-03-01T09:12:23.374Z,29.20
2018-03-01T09:13:26.634Z,28.60
2018-03-01T09:14:29.868Z,27.25
2018-03-01T09:15:33.872Z,29.20
2018-03-01T09:16:37.968Z,28.75
2018-03-01T09:17:41.957Z,28.92
2018-03-01T09:18:45.961Z,26.67
2018-03-01T09:19:49.970Z,28.80
2018-03-01T09:20:53.188Z,28.80
2018-03-01T09:21:56.436Z,27.50
2018-03-01T09:23:00.429Z,29.90
2018-03-01T09:24:04.457Z,28.33
2018-03-01T09:25:08.447Z,28.20
2018-03-01T09:26:12.564Z,29.20
2018-03-01T09:27:16.570Z,27.73
2018-03-01T09:28:19.809Z,31.80
2018-03-01T09:29:23.044Z,27.67
2018-03-01T09:30:26.269Z,29.77
2018-03-01T09:31:30.257Z,28.90
2018-03-01T09:32:33.501Z,27.98
2018-03-01T09:33:36.824Z,28.33
2018-03-01T09:34:40.153Z,28.80
2018-03-01T09:35:43.405Z,28.92
2018-03-01T09:36:46.639Z,29.30
2018-03-01T09:37:49.911Z,25.73
2018-03-01T09:38:53.153Z,28.08
2018-03-01T09:39:56.394Z,29.17
2018-03-01T09:40:59.635Z,29.23
2018-03-01T09:42:02.861Z,26.70
2018-03-01T09:43:06.375Z,27.48
2018-03-01T09:44:09.624Z,30.17
2018-03-01T09:45:12.861Z,27.25
2018-03-01T09:46:16.119Z,25.25
2018-03-01T09:47:19.429Z,28.27
2018-03-01T09:48:23.010Z,28.60
2018-03-01T09:49:26.265Z,29.05
2018-03-01T09:50:29.501Z,28.20
2018-03-01T09:51:33.544Z,29.48
2018-03-01T09:52:36.800Z,33.35
2018-03-01T09:53:40.806Z,27.73
2018-03-01T09:54:44.817Z,28.52
2018-03-01T09:55:48.061Z,29.33
2018-03-01T09:56:51.312Z,29.45
2018-03-01T09:57:54.567Z,28.92
2018-03-01T09:58:57.837Z,27.95
2018-03-01T10:00:01.059Z,27.17
2018-03-01T10:01:04.310Z,27.65
2018-03-01T10:02:07.545Z,30.05
2018-03-01T10:03:10.764Z,31.55
2018-03-01T10:04:14.748Z,29.50
2018-03-01T10:05:18.213Z,27.75
2018-03-01T10:06:21.495Z,29.55
2018-03-01T10:07:24.710Z,29.60
2018-03-01T10:08:28.017Z,27.55
2018-03-01T10:09:32.090Z,27.83
2018-03-01T10:10:35.331Z,29.37
2018-03-01T10:11:38.586Z,27.08
2018-03-01T10:12:41.834Z,28.45
2018-03-01T10:13:45.068Z,27.92
2018-03-01T10:14:48.363Z,28.95
2018-03-01T10:15:51.573Z,28.00
2018-03-01T10:16:54.804Z,26.75
2018-03-01T10:17:58.100Z,28.55
2018-03-01T10:19:01.377Z,30.77
2018-03-01T10:20:04.698Z,27.20
2018-03-01T10:21:07.904Z,25.92
2018-03-01T10:22:11.141Z,26.87
2018-03-01T10:23:14.384Z,28.70
2018-03-01T10:24:18.388Z,24.95
2018-03-01T10:25:21.605Z,26.20
2018-03-01T10:26:24.913Z,29.30
2018-03-01T10:27:28.150Z,27.48
2018-03-01T10:28:37.779Z,27.75
2018-03-01T10:29:46.657Z,28.00
2018-03-01T10:30:49.959Z,28.00
2018-03-01T10:31:53.138Z,28.42
2018-03-01T10:32:56.357Z,29.95
2018-03-01T10:33:59.593Z,28.38
2018-03-01T10:35:02.847Z,29.08
2018-03-01T10:36:06.090Z,29.50
2018-03-01T10:37:09.345Z,28.42
2018-03-01T10:38:12.593Z,27.23
2018-03-01T10:39:15.822Z,29.15
2018-03-01T10:40:19.824Z,28.58
2018-03-01T10:41:23.831Z,27.80
2018-03-01T10:42:27.857Z,27.98
2018-03-01T10:43:31.110Z,27.60
2018-03-01T10:44:34.364Z,27.23
2018-03-01T10:45:37.573Z,26.80
2018-03-01T10:46:41.586Z,27.25
2018-03-01T10:47:45.586Z,28.50
2018-03-01T10:48:49.582Z,29.60
2018-03-01T10:49:53.577Z,28.48
2018-03-01T10:50:57.589Z,27.02
2018-03-01T10:52:01.579Z,26.55
2018-03-01T10:53:05.590Z,26.58
2018-03-01T10:54:08.899Z,26.55
2018-03-01T10:55:12.158Z,27.58
2018-03-01T10:56:15.382Z,27.73
2018-03-01T10:57:18.640Z,28.77
2018-03-01T10:58:21.858Z,27.70
2018-03-01T10:59:25.140Z,27.90
2018-03-01T11:00:33.976Z,26.48
2018-03-01T11:01:37.228Z,27.05
2018-03-01T11:02:40.528Z,27.75
2018-03-01T11:03:43.762Z,28.20
2018-03-01T11:04:47.743Z,26.67
2018-03-01T11:05:51.738Z,29.50
2018-03-01T11:06:55.761Z,28.23
2018-03-01T11:07:59.749Z,28.08
2018-03-01T11:09:03.741Z,28.60
2018-03-01T11:10:07.740Z,27.92
2018-03-01T11:11:11.742Z,25.67
2018-03-01T11:12:14.986Z,28.98
2018-03-01T11:13:18.185Z,27.95
2018-03-01T11:14:21.423Z,28.62
2018-03-01T11:15:24.644Z,27.75
2018-03-01T11:16:27.981Z,26.37
2018-03-01T11:17:31.224Z,29.20
2018-03-01T11:18:34.466Z,26.55
2018-03-01T11:19:37.713Z,27.60
2018-03-01T11:20:41.705Z,28.00
2018-03-01T11:21:45.727Z,28.08
2018-03-01T11:22:49.724Z,30.30
2018-03-01T11:23:53.718Z,28.40
2018-03-01T11:24:57.719Z,29.35
2018-03-01T11:26:01.712Z,27.48
2018-03-01T11:27:05.702Z,28.98
2018-03-01T11:28:08.950Z,26.77
2018-03-01T11:29:12.235Z,27.75
2018-03-01T11:30:16.295Z,26.00
2018-03-01T11:31:19.576Z,26.50
2018-03-01T11:32:23.587Z,25.95
2018-03-01T11:33:26.809Z,27.48
2018-03-01T11:34:30.106Z,28.48
2018-03-01T11:35:33.322Z,29.52
2018-03-01T11:36:37.309Z,30.00
2018-03-01T11:37:40.557Z,28.40
2018-03-01T11:38:43.789Z,28.20
2018-03-01T11:39:47.811Z,27.75
2018-03-01T11:40:51.144Z,27.75
2018-03-01T11:41:54.397Z,27.35
2018-03-01T11:42:58.339Z,28.52
2018-03-01T11:44:01.592Z,26.83
2018-03-01T11:45:04.795Z,26.40
2018-03-01T11:46:08.128Z,29.98
2018-03-01T11:47:11.402Z,27.52
2018-03-01T11:48:14.655Z,26.08
2018-03-01T11:49:17.886Z,27.73
2018-03-01T11:50:21.114Z,28.83
2018-03-01T11:51:24.362Z,27.52
2018-03-01T11:52:27.592Z,29.27
2018-03-01T11:53:30.834Z,25.65
2018-03-01T11:54:34.066Z,26.23
2018-03-01T11:55:38.092Z,27.60
2018-03-01T11:56:42.093Z,27.65
2018-03-01T11:57:46.083Z,27.37
2018-03-01T11:58:50.086Z,26.52
2018-03-01T11:59:54.075Z,29.00
2018-03-01T12:00:58.159Z,28.25
2018-03-01T12:02:01.372Z,28.17
2018-03-01T12:03:04.712Z,27.98
2018-03-01T12:04:07.925Z,28.40
2018-03-01T12:05:11.906Z,29.08
2018-03-01T12:06:15.245Z,28.65
2018-03-01T12:07:18.460Z,28.95
2018-03-01T12:08:21.701Z,27.90
2018-03-01T12:09:24.957Z,28.65
2018-03-01T12:10:28.236Z,27.45
2018-03-01T12:11:31.460Z,27.30
2018-03-01T12:12:34.683Z,28.55
2018-03-01T12:13:37.925Z,28.02
2018-03-01T12:14:41.146Z,26.15
2018-03-01T12:15:44.394Z,27.67
2018-03-01T12:16:47.674Z,28.00
2018-03-01T12:17:51.094Z,28.67
2018-03-01T12:18:54.364Z,29.00
2018-03-01T12:19:57.602Z,28.20
2018-03-01T12:21:01.617Z,27.75
2018-03-01T12:22:04.966Z,28.48
2018-03-01T12:23:08.147Z,30.17
2018-03-01T12:24:11.372Z,29.30
2018-03-01T12:25:14.601Z,28.12
2018-03-01T12:26:17.852Z,30.33
2018-03-01T12:27:21.064Z,27.83
2018-03-01T12:28:24.309Z,28.27
2018-03-01T12:29:28.315Z,28.05
2018-03-01T12:30:31.539Z,29.23
2018-03-01T12:31:34.774Z,28.35
2018-03-01T12:32:38.016Z,25.92
2018-03-01T12:33:41.343Z,26.42
2018-03-01T12:34:44.575Z,27.60
2018-03-01T12:35:47.800Z,28.55
2018-03-01T12:36:51.054Z,30.15
2018-03-01T12:37:54.348Z,28.52
2018-03-01T12:38:57.551Z,25.35
2018-03-01T12:40:00.801Z,26.50
2018-03-01T12:41:04.028Z,26.48
2018-03-01T12:42:07.309Z,28.60
2018-03-01T12:43:10.535Z,28.20
2018-03-01T12:44:13.762Z,28.75
2018-03-01T12:45:17.846Z,28.98
2018-03-01T12:46:21.821Z,26.80
2018-03-01T12:47:25.056Z,26.12
2018-03-01T12:48:28.296Z,29.80
2018-03-01T12:49:31.528Z,26.98
2018-03-01T12:50:34.745Z,27.73
2018-03-01T12:51:38.008Z,27.90
2018-03-01T12:52:41.228Z,28.67
2018-03-01T12:53:44.449Z,28.15
2018-03-01T12:54:47.699Z,27.23
2018-03-01T12:55:50.918Z,27.23
2018-03-01T12:56:54.154Z,28.90
2018-03-01T12:57:57.375Z,28.17
2018-03-01T12:59:00.815Z,28.58
2018-03-01T13:00:04.008Z,27.70
2018-03-01T13:01:07.274Z,30.02
2018-03-01T13:02:10.499Z,29.90
2018-03-01T13:03:14.486Z,30.02
2018-03-01T13:04:19.924Z,26.65
2018-03-01T13:05:23.972Z,28.73
2018-03-01T13:06:27.909Z,30.75
2018-03-01T13:07:31.901Z,29.45
2018-03-01T13:08:35.129Z,28.42
2018-03-01T13:09:38.368Z,29.02
2018-03-01T13:10:42.403Z,28.87
2018-03-01T13:11:46.402Z,28.42
2018-03-01T13:12:50.393Z,27.65
2018-03-01T13:13:54.390Z,30.35
2018-03-01T13:14:58.399Z,29.30
2018-03-01T13:16:02.392Z,24.67
2018-03-01T13:17:06.472Z,28.17
2018-03-01T13:18:09.710Z,29.27
2018-03-01T13:19:12.942Z,29.50
2018-03-01T13:20:16.175Z,28.10
2018-03-01T13:21:19.404Z,28.87
2018-03-01T13:22:22.702Z,30.12
2018-03-01T13:23:25.935Z,29.70
2018-03-01T13:24:29.170Z,28.83
2018-03-01T13:25:32.838Z,26.87
2018-03-01T13:26:36.043Z,28.33
2018-03-01T13:27:39.271Z,28.10
2018-03-01T13:28:42.491Z,27.92
2018-03-01T13:29:45.723Z,28.25
2018-03-01T13:30:55.490Z,28.33
2018-03-01T13:32:13.406Z,28.23
2018-03-01T13:33:19.595Z,28.42
2018-03-01T13:34:22.820Z,30.05
2018-03-01T13:35:41.805Z,28.15
2018-03-01T13:36:45.010Z,27.85
2018-03-01T13:37:48.243Z,29.25
2018-03-01T13:38:51.487Z,29.05
2018-03-01T13:39:54.720Z,26.95
2018-03-01T13:40:57.954Z,29.23